Time;durP1;ratioP1;P1;durP2;ratioP2;P2;SDS_P1;SDS_P2;PMS_P1;PMS_P2;Temp;Humidity;BMP_temperature;BMP_pressure;BME280_temperature;BME280_humidity;BME280_pressure;Samples;Min_cycle;Max_cycle;Signal;HPM_P1;HPM_P2
2021/12/02 00:01:30;;;;;;;5.53;2.15;;;7.30;99.90;;;7.12;94.97;99244.91;5269218;28;20050;-68
2021/12/02 00:04:02;;;;;;;8.50;2.22;;;7.20;99.90;;;7.11;95.10;99247.44;5269848;28;20048;-69
2021/12/02 00:06:36;;;;;;;6.38;2.00;;;7.30;99.90;;;7.09;95.32;99250.00;5269593;28;20044;-69
2021/12/02 00:09:08;;;;;;;4.10;1.60;;;7.20;99.90;;;7.08;95.31;99250.84;5269489;28;20505;-70
2021/12/02 00:11:40;;;;;;;5.28;1.92;;;7.20;99.90;;;7.08;95.02;99253.44;5269196;28;20075;-68
2021/12/02 00:14:15;;;;;;;6.47;2.35;;;7.20;99.90;;;7.07;95.41;99247.38;5269329;28;20052;-69
2021/12/02 00:17:03;;;;;;;7.30;1.77;;;7.20;99.90;;;7.04;94.94;99252.50;5269070;28;20143;-68
2021/12/02 00:22:28;;;;;;;5.85;2.17;;;7.20;99.90;;;6.98;95.33;99251.47;5269248;28;20097;-69
2021/12/02 00:25:04;;;;;;;5.20;2.35;;;7.10;99.90;;;6.94;95.21;99257.41;5269197;28;20052;-68
2021/12/02 00:27:37;;;;;;;5.03;2.10;;;7.10;99.90;;;6.93;95.71;99248.75;5268661;28;20135;-69
2021/12/02 00:30:11;;;;;;;5.28;2.00;;;7.10;99.90;;;6.90;95.46;99251.25;5269137;28;20052;-69
2021/12/02 00:32:44;;;;;;;6.95;2.50;;;7.00;99.90;;;6.91;95.45;99249.53;5268885;28;20050;-69
2021/12/02 00:35:17;;;;;;;5.35;2.20;;;7.00;99.90;;;6.91;95.77;99252.13;5268985;28;20411;-68
2021/12/02 00:37:50;;;;;;;7.85;2.47;;;7.00;99.90;;;6.92;96.08;99252.19;5269172;28;20043;-69
2021/12/02 00:40:22;;;;;;;7.45;2.80;;;7.00;99.90;;;6.90;95.56;99259.03;5268782;28;20044;-68
2021/12/02 00:42:55;;;;;;;9.65;3.30;;;7.00;99.90;;;6.89;96.17;99251.22;5269006;28;20472;-68
2021/12/02 00:45:28;;;;;;;6.30;2.42;;;7.00;99.90;;;6.89;95.77;99257.28;5268338;28;20088;-69
2021/12/02 00:48:01;;;;;;;5.85;2.53;;;7.00;99.90;;;6.91;96.04;99254.72;5268401;28;20048;-67
2021/12/02 00:50:34;;;;;;;5.43;2.78;;;7.00;99.90;;;6.91;96.09;99255.63;5268494;28;20395;-69
2021/12/02 00:53:07;;;;;;;8.13;3.15;;;7.00;99.90;;;6.90;96.37;99258.16;5268466;28;20373;-68
2021/12/02 00:55:41;;;;;;;7.63;3.08;;;7.00;99.90;;;6.89;96.06;99259.00;5268344;28;20048;-67
2021/12/02 00:58:19;;;;;;;8.75;3.33;;;7.00;99.90;;;6.89;96.72;99257.28;5268528;28;20471;-70
2021/12/02 01:00:53;;;;;;;8.25;3.20;;;7.00;99.90;;;6.89;96.09;99261.59;5268516;28;20491;-68
2021/12/02 01:03:28;;;;;;;15.00;4.55;;;7.00;99.90;;;6.88;95.99;99262.44;5268253;28;20048;-68
2021/12/02 01:06:00;;;;;;;11.05;4.85;;;7.00;99.90;;;6.89;96.08;99266.78;5268038;28;20548;-68
2021/12/02 01:08:34;;;;;;;10.18;4.22;;;7.00;99.90;;;6.90;96.46;99264.22;5268201;28;20048;-69
2021/12/02 01:11:09;;;;;;;9.93;4.20;;;7.00;99.90;;;6.92;96.26;99261.69;5268379;28;20133;-70
2021/12/02 01:13:41;;;;;;;12.52;3.95;;;7.00;99.90;;;6.91;96.60;99265.09;5268150;28;20044;-69
2021/12/02 01:16:16;;;;;;;13.88;4.18;;;7.00;99.90;;;6.93;96.27;99271.22;5268178;28;20332;-69
2021/12/02 01:18:49;;;;;;;10.20;3.83;;;7.00;99.90;;;6.91;96.39;99265.09;5268067;28;20506;-69
2021/12/02 01:21:24;;;;;;;8.18;3.95;;;7.00;99.90;;;6.93;96.40;99273.78;5268053;28;20502;-69
2021/12/02 01:24:02;;;;;;;10.93;3.60;;;7.00;99.90;;;6.93;96.61;99263.44;5268067;28;20482;-68
2021/12/02 01:26:36;;;;;;;8.43;3.83;;;7.00;99.90;;;6.93;96.79;99258.25;5267744;28;20044;-68
2021/12/02 01:29:07;;;;;;;12.35;3.72;;;7.00;99.90;;;6.93;96.60;99261.72;5267553;28;20050;-69
2021/12/02 01:31:43;;;;;;;8.40;4.05;;;7.10;99.90;;;6.90;96.52;99252.97;5267512;28;20044;-68
2021/12/02 01:34:15;;;;;;;10.23;3.65;;;7.00;99.90;;;6.90;96.17;99258.16;5268068;28;20044;-68
2021/12/02 01:36:48;;;;;;;7.18;3.83;;;7.00;99.90;;;6.89;96.71;99256.41;5267629;28;20056;-68
2021/12/02 01:39:21;;;;;;;8.48;4.32;;;7.00;99.90;;;6.89;96.80;99267.66;5267884;28;20043;-69
2021/12/02 01:41:56;;;;;;;11.48;4.57;;;7.00;99.90;;;6.89;96.43;99256.41;5268081;28;20052;-68
2021/12/02 01:44:30;;;;;;;11.73;4.03;;;7.00;99.90;;;6.88;96.53;99259.84;5267600;28;20044;-70
2021/12/02 01:47:05;;;;;;;11.27;4.30;;;7.00;99.90;;;6.88;96.12;99259.84;5267521;28;20083;-68
2021/12/02 01:49:43;;;;;;;11.10;4.22;;;7.00;99.90;;;6.90;96.11;99260.75;5267590;28;20051;-68
2021/12/02 01:52:15;;;;;;;9.63;4.10;;;7.00;99.90;;;6.86;96.23;99264.13;5267644;28;20409;-70
2021/12/02 01:54:48;;;;;;;10.85;4.50;;;7.00;99.90;;;6.86;96.30;99261.53;5267820;28;20058;-69
2021/12/02 01:57:30;;;;;;;10.05;4.45;;;7.00;99.90;;;6.86;95.67;99261.53;5267581;28;20151;-69
2021/12/02 02:00:10;;;;;;;9.38;3.95;;;7.00;99.90;;;6.82;95.74;99255.38;5267505;28;20048;-68
2021/12/02 02:02:43;;;;;;;7.65;4.03;;;7.00;99.90;;;6.84;95.74;99258.00;5267208;28;20138;-68
2021/12/02 02:05:17;;;;;;;9.38;3.85;;;7.00;99.90;;;6.76;95.22;99263.00;5267434;28;20060;-67
2021/12/02 02:07:57;;;;;;;11.82;4.32;;;6.90;99.90;;;6.74;95.71;99260.38;5267263;28;20045;-70
2021/12/02 02:10:32;;;;;;;10.52;4.35;;;6.90;99.90;;;6.68;95.36;99252.44;5267382;28;20048;-68
2021/12/02 02:13:07;;;;;;;10.57;3.90;;;6.90;99.90;;;6.69;95.53;99261.09;5267396;28;20040;-71
2021/12/02 02:15:42;;;;;;;11.00;4.22;;;6.90;99.90;;;6.67;95.63;99261.06;5267074;28;20403;-69
2021/12/02 02:18:20;;;;;;;8.65;3.85;;;6.90;99.90;;;6.68;95.81;99262.81;5267112;28;20052;-69
2021/12/02 02:20:59;;;;;;;12.05;4.18;;;6.80;99.90;;;6.69;95.26;99255.91;5266883;28;20052;-69
2021/12/02 02:23:39;;;;;;;10.20;4.10;;;6.80;99.90;;;6.65;94.87;99254.97;5267200;28;20052;-69
2021/12/02 02:26:11;;;;;;;11.48;4.93;;;6.80;99.90;;;6.64;95.12;99262.69;5266834;28;20395;-70
2021/12/02 02:28:43;;;;;;;10.75;4.40;;;6.80;99.90;;;6.59;95.86;99260.00;5266931;28;20129;-68
2021/12/02 02:31:15;;;;;;;8.88;3.78;;;6.80;99.90;;;6.58;95.95;99259.91;5268966;28;20048;-70
2021/12/02 02:33:49;;;;;;;9.40;4.28;;;6.80;99.90;;;6.61;96.31;99266.06;5271004;28;20048;-69
2021/12/02 02:36:25;;;;;;;8.90;3.70;;;6.80;99.90;;;6.58;96.19;99258.22;5270883;28;20051;-70
2021/12/02 02:38:59;;;;;;;10.65;4.43;;;6.80;99.90;;;6.61;95.89;99258.31;5271097;28;20126;-68
2021/12/02 02:41:35;;;;;;;7.95;3.97;;;6.80;99.90;;;6.60;95.64;99251.38;5270898;28;20555;-67
2021/12/02 02:44:09;;;;;;;10.45;4.05;;;6.80;99.90;;;6.57;95.77;99255.59;5270752;28;20056;-70
2021/12/02 02:46:42;;;;;;;5.97;3.25;;;6.80;99.90;;;6.58;95.88;99265.97;5270884;28;20135;-68
2021/12/02 02:49:15;;;;;;;5.85;3.20;;;6.80;99.90;;;6.63;95.50;99263.50;5270978;28;20484;-67
2021/12/02 02:51:49;;;;;;;9.30;3.67;;;6.80;99.90;;;6.64;95.08;99257.50;5271351;28;20465;-69
2021/12/02 02:54:23;;;;;;;8.20;3.85;;;6.80;99.90;;;6.56;96.05;99252.13;5270467;28;20048;-68
2021/12/02 02:57:01;;;;;;;8.75;3.42;;;6.80;99.90;;;6.49;96.33;99255.38;5270833;28;20052;-68
2021/12/02 02:59:41;;;;;;;9.80;3.80;;;6.70;99.90;;;6.46;96.84;99265.69;5270854;28;20048;-69
2021/12/02 03:02:21;;;;;;;8.30;3.17;;;6.70;99.90;;;6.48;96.70;99267.47;5270719;28;20400;-68
2021/12/02 03:05:01;;;;;;;9.52;4.25;;;6.70;99.90;;;6.44;96.46;99262.16;5270507;28;20048;-68
2021/12/02 03:07:39;;;;;;;6.00;3.00;;;6.60;99.90;;;6.43;96.86;99261.28;5270604;28;20052;-68
2021/12/02 03:10:16;;;;;;;6.63;2.90;;;6.60;99.90;;;6.38;96.92;99267.16;5270437;28;20048;-69
2021/12/02 03:12:58;;;;;;;8.95;3.28;;;6.60;99.90;;;6.44;96.45;99262.16;5270357;28;20051;-69
2021/12/02 03:18:24;;;;;;;5.72;2.65;;;6.60;99.90;;;6.32;97.13;99273.03;5270337;28;20542;-69
2021/12/02 03:20:56;;;;;;;7.30;3.13;;;6.60;99.90;;;6.33;96.29;99276.53;5270262;28;20222;-68
2021/12/02 03:23:29;;;;;;;11.25;3.30;;;6.60;99.90;;;6.31;97.18;99280.78;5270606;28;20056;-69
2021/12/02 03:26:01;;;;;;;11.65;3.63;;;6.60;99.90;;;6.33;97.41;99271.34;5270440;28;20048;-69
2021/12/02 03:28:33;;;;;;;5.72;2.75;;;6.60;99.90;;;6.28;97.22;99272.94;5270275;28;20044;-70
2021/12/02 03:31:09;;;;;;;5.82;2.85;;;6.50;99.90;;;6.27;97.71;99273.78;5270186;28;20048;-68
2021/12/02 03:33:42;;;;;;;7.20;2.80;;;6.50;99.90;;;6.29;97.48;99266.91;5270100;28;20369;-69
2021/12/02 03:36:16;;;;;;;5.35;2.72;;;6.50;99.90;;;6.28;97.60;99271.22;5269846;28;20059;-69
2021/12/02 03:38:49;;;;;;;7.20;2.67;;;6.50;99.90;;;6.25;97.52;99272.00;5270189;28;20044;-69
2021/12/02 03:41:21;;;;;;;6.10;2.75;;;6.50;99.90;;;6.29;97.41;99272.09;5269347;28;20047;-68
2021/12/02 03:43:54;;;;;;;5.32;2.33;;;6.50;99.90;;;6.34;98.03;99273.09;5270007;28;20047;-67
2021/12/02 03:46:26;;;;;;;3.90;2.40;;;6.50;99.90;;;6.35;97.50;99269.69;5269927;28;20510;-69
2021/12/02 03:48:59;;;;;;;5.97;2.47;;;6.50;99.90;;;6.28;97.15;99272.94;5269700;28;20071;-68
2021/12/02 03:51:32;;;;;;;2.85;2.28;;;6.50;99.90;;;6.26;97.01;99280.66;5270157;28;20466;-69
2021/12/02 03:54:05;;;;;;;5.88;2.50;;;6.50;99.90;;;6.23;96.82;99273.66;5269638;28;20476;-70
2021/12/02 03:56:37;;;;;;;6.70;2.60;;;6.40;99.90;;;6.19;98.19;99276.13;5269801;28;20229;-70
2021/12/02 03:59:09;;;;;;;5.65;2.70;;;6.40;99.90;;;6.16;97.76;99276.06;5270142;28;20415;-69
2021/12/02 04:01:41;;;;;;;7.90;2.88;;;6.40;99.90;;;6.14;98.26;99273.44;5269510;28;20052;-68
2021/12/02 04:04:13;;;;;;;5.88;2.65;;;6.40;99.90;;;6.12;98.12;99274.19;5269614;28;20044;-69
2021/12/02 04:06:46;;;;;;;5.18;2.63;;;6.40;99.90;;;6.11;98.51;99275.91;5269523;28;20139;-69
2021/12/02 04:09:20;;;;;;;7.97;2.95;;;6.40;99.90;;;6.10;98.64;99266.41;5269165;28;20054;-68
2021/12/02 04:11:59;;;;;;;4.50;2.33;;;6.40;99.90;;;6.12;98.36;99264.72;5269593;28;20480;-68
2021/12/02 04:14:35;;;;;;;6.57;2.65;;;6.40;99.90;;;6.10;98.16;99271.56;5269043;28;20051;-68
2021/12/02 04:17:09;;;;;;;11.25;3.05;;;6.40;99.90;;;6.10;98.70;99273.28;5269402;28;20059;-70
2021/12/02 04:19:41;;;;;;;6.95;2.17;;;6.40;99.90;;;6.13;98.08;99273.38;5268892;28;20056;-68
2021/12/02 04:22:13;;;;;;;8.98;2.92;;;6.40;99.90;;;6.11;98.03;99273.31;5268943;28;20048;-68
2021/12/02 04:24:46;;;;;;;7.32;2.80;;;6.40;99.90;;;6.11;98.17;99268.16;5269846;28;20046;-69
2021/12/02 04:27:19;;;;;;;7.40;2.55;;;6.30;99.90;;;6.13;98.02;99271.69;5268762;28;20048;-68
2021/12/02 04:29:51;;;;;;;8.95;2.85;;;6.30;99.90;;;6.12;98.63;99275.06;5269561;28;20056;-68
2021/12/02 04:32:23;;;;;;;9.05;2.63;;;6.40;99.90;;;6.15;98.08;99277.75;5269114;28;20076;-68
2021/12/02 04:34:55;;;;;;;8.88;2.63;;;6.30;99.90;;;6.12;97.75;99275.06;5268711;28;20044;-67
2021/12/02 04:37:28;;;;;;;5.68;2.35;;;6.30;99.90;;;6.07;97.72;99289.63;5269005;28;20048;-69
2021/12/02 04:40:01;;;;;;;6.97;2.50;;;6.30;99.90;;;6.03;98.47;99279.13;5268886;28;20485;-67
2021/12/02 04:42:34;;;;;;;7.95;2.10;;;6.30;99.90;;;5.99;98.87;99283.31;5268759;28;20051;-68
2021/12/02 04:45:07;;;;;;;5.53;2.63;;;6.30;99.90;;;5.98;98.61;99282.44;5268682;28;20048;-68
2021/12/02 04:47:40;;;;;;;7.45;2.40;;;6.30;99.90;;;5.96;99.38;99283.25;5268811;28;20048;-67
2021/12/02 04:50:13;;;;;;;4.68;2.40;;;6.20;99.90;;;5.93;99.44;99288.31;5268251;28;20076;-68
2021/12/02 04:52:45;;;;;;;8.73;2.53;;;6.20;99.90;;;5.94;99.23;99290.09;5268180;28;20044;-69
2021/12/02 04:55:19;;;;;;;4.32;1.92;;;6.20;99.90;;;5.92;99.73;99291.72;5268478;28;20043;-68
2021/12/02 04:57:51;;;;;;;5.53;2.60;;;6.20;99.90;;;5.94;99.05;99295.25;5268461;28;20056;-68
2021/12/02 05:00:23;;;;;;;5.43;2.38;;;6.20;99.90;;;5.97;99.13;99297.94;5268648;28;20044;-68
2021/12/02 05:02:55;;;;;;;5.43;2.60;;;6.20;99.90;;;5.97;99.17;99297.94;5352978;22;20055;-78
2021/12/02 05:05:28;;;;;;;4.72;2.75;;;6.20;99.90;;;5.98;99.04;99299.69;5248460;28;20055;-78
2021/12/02 05:08:01;;;;;;;5.18;2.60;;;6.20;99.90;;;5.99;99.10;99304.88;5248332;28;20056;-79
2021/12/02 05:10:34;;;;;;;9.75;2.85;;;6.20;99.90;;;6.00;99.19;99300.63;5248873;28;20059;-78
2021/12/02 05:13:06;;;;;;;7.50;3.03;;;6.20;99.90;;;5.99;99.23;99298.84;5248002;28;20044;-79
2021/12/02 05:15:38;;;;;;;7.70;3.00;;;6.20;99.90;;;6.01;98.24;99301.50;5247501;28;20412;-78
2021/12/02 05:18:10;;;;;;;5.82;2.67;;;6.20;99.90;;;6.01;99.05;99292.03;5247860;28;20130;-78
2021/12/02 05:20:42;;;;;;;6.38;2.50;;;6.20;99.90;;;5.99;98.68;99298.84;5248189;28;20135;-78
2021/12/02 05:23:14;;;;;;;6.03;2.55;;;6.20;99.90;;;5.95;98.70;99304.78;5247381;28;20051;-78
2021/12/02 05:25:47;;;;;;;6.18;3.05;;;6.20;99.90;;;5.92;98.36;99302.06;5247229;28;20135;-78
2021/12/02 05:28:20;;;;;;;5.75;2.72;;;6.20;99.90;;;5.93;98.69;99298.66;5247300;28;20044;-77
2021/12/02 05:30:52;;;;;;;6.50;2.90;;;6.20;99.90;;;5.93;98.78;99303.81;5247711;28;20500;-77
2021/12/02 05:33:24;;;;;;;10.90;2.92;;;6.20;99.90;;;5.99;98.49;99298.84;5247247;28;20131;-77
2021/12/02 05:35:56;;;;;;;6.68;2.30;;;6.20;99.90;;;5.89;97.80;99296.78;5246914;28;20055;-79
2021/12/02 05:38:28;;;;;;;9.15;2.50;;;6.20;99.90;;;5.85;97.81;99292.34;5247638;28;20045;-78
2021/12/02 05:41:02;;;;;;;6.15;2.35;;;6.10;99.90;;;5.83;98.13;99288.84;5247241;28;20048;-78
2021/12/02 05:43:35;;;;;;;6.93;2.60;;;6.10;99.90;;;5.84;98.20;99295.78;5247175;28;20056;-77
2021/12/02 05:46:07;;;;;;;11.52;3.03;;;6.10;99.90;;;5.85;98.08;99292.34;5247476;28;20496;-77
2021/12/02 05:48:40;;;;;;;5.07;2.60;;;6.10;99.90;;;5.83;97.99;99286.28;5247776;28;20051;-79
2021/12/02 05:51:12;;;;;;;7.95;3.00;;;6.10;99.90;;;5.82;97.41;99289.69;5247322;28;20075;-78
2021/12/02 05:53:44;;;;;;;8.98;2.97;;;6.00;99.90;;;5.78;97.73;99293.00;5246482;28;20137;-78
2021/12/02 05:56:18;;;;;;;10.30;2.75;;;6.00;99.90;;;5.77;97.79;99299.88;5247335;28;20544;-78
2021/12/02 05:58:50;;;;;;;8.85;2.42;;;6.00;99.90;;;5.76;97.59;99286.94;5246866;28;20131;-78
2021/12/02 06:01:24;;;;;;;7.15;2.63;;;6.00;99.90;;;5.76;97.81;99289.50;5247129;28;20055;-79
2021/12/02 06:03:56;;;;;;;7.53;2.30;;;6.00;99.90;;;5.73;97.57;99296.31;5246666;28;20131;-78
2021/12/02 06:06:28;;;;;;;5.90;2.78;;;6.00;99.90;;;5.79;97.43;99300.81;5246409;28;20045;-78
2021/12/02 06:09:00;;;;;;;6.18;2.47;;;6.00;99.90;;;5.76;97.41;99300.72;5246505;28;20128;-77
2021/12/02 06:11:33;;;;;;;7.13;2.35;;;6.00;99.90;;;5.75;96.97;99298.97;5246977;28;20549;-78
2021/12/02 06:14:05;;;;;;;4.35;2.28;;;6.00;99.90;;;5.71;96.59;99307.47;5245940;28;20048;-78
2021/12/02 06:16:37;;;;;;;6.70;2.45;;;6.00;99.90;;;5.71;96.07;99303.16;5246651;28;20048;-77
2021/12/02 06:19:10;;;;;;;5.07;2.17;;;6.00;99.90;;;5.70;96.37;99298.81;5246850;28;20478;-78
2021/12/02 06:21:42;;;;;;;9.40;2.55;;;5.90;99.90;;;5.78;96.08;99308.53;5246724;28;20041;-78
2021/12/02 06:24:14;;;;;;;5.22;2.33;;;5.90;99.90;;;5.75;95.27;99305.84;5247322;28;20045;-78
2021/12/02 06:26:48;;;;;;;4.97;2.00;;;6.00;99.90;;;5.72;95.66;99311.78;5246945;28;20121;-78
2021/12/02 06:29:20;;;;;;;6.07;2.40;;;5.90;99.90;;;5.73;95.70;99318.72;5246561;28;20127;-78
2021/12/02 06:31:52;;;;;;;6.55;2.83;;;5.90;99.90;;;5.72;95.81;99315.25;5246699;28;20051;-77
2021/12/02 06:34:24;;;;;;;4.70;2.40;;;5.90;99.90;;;5.69;96.20;99322.94;5246587;28;20144;-78
2021/12/02 06:36:56;;;;;;;6.80;2.50;;;6.00;99.90;;;5.69;95.77;99325.50;5247017;28;20055;-79
2021/12/02 06:39:28;;;;;;;4.93;2.38;;;5.90;99.90;;;5.72;96.07;99323.00;5246616;28;20044;-78
2021/12/02 06:42:01;;;;;;;8.43;2.40;;;5.90;99.90;;;5.69;96.19;99328.09;5247307;28;20048;-78
2021/12/02 06:44:33;;;;;;;5.18;2.30;;;5.90;99.90;;;5.66;95.79;99322.81;5246107;28;20136;-78
2021/12/02 06:47:05;;;;;;;4.63;2.03;;;5.90;99.90;;;5.66;96.13;99328.00;5246588;28;20413;-77
2021/12/02 06:49:40;;;;;;;4.70;2.30;;;5.90;99.90;;;5.60;95.29;99327.81;5246506;28;20113;-78
2021/12/02 06:52:14;;;;;;;5.78;1.95;;;5.90;99.90;;;5.55;94.51;99346.59;5246620;28;20504;-77
2021/12/02 06:54:46;;;;;;;5.38;2.30;;;5.80;99.90;;;5.53;95.20;99343.94;5246185;28;20548;-78
2021/12/02 06:57:20;;;;;;;2.67;1.80;;;5.80;99.90;;;5.53;95.32;99343.94;5246498;28;20135;-77
2021/12/02 06:59:52;;;;;;;3.75;1.90;;;5.80;99.90;;;5.55;95.14;99351.78;5247196;28;20055;-76
2021/12/02 07:02:25;;;;;;;6.15;1.77;;;5.80;99.90;;;5.54;95.02;99350.00;5247017;28;20131;-76
2021/12/02 07:04:58;;;;;;;4.32;2.05;;;5.80;99.90;;;5.52;94.62;99352.53;5246215;28;20056;-78
2021/12/02 07:07:34;;;;;;;5.03;2.10;;;5.80;99.90;;;5.50;94.66;99355.91;5246936;28;20075;-77
2021/12/02 07:10:09;;;;;;;6.50;2.42;;;5.80;99.90;;;5.50;94.76;99358.50;5247351;28;20455;-77
2021/12/02 07:12:45;;;;;;;4.50;2.25;;;5.80;99.90;;;5.48;94.41;99361.03;5246596;28;20135;-76
2021/12/02 07:15:20;;;;;;;4.82;2.28;;;5.80;99.90;;;5.42;94.51;99356.53;5245788;28;20091;-78
2021/12/02 07:17:55;;;;;;;5.60;2.95;;;5.70;99.90;;;5.39;94.45;99360.72;5249611;28;20588;-77
2021/12/02 07:20:33;;;;;;;6.63;2.17;;;5.70;99.90;;;5.37;94.78;99367.56;5250636;28;20048;-76
2021/12/02 07:23:06;;;;;;;7.07;3.20;;;5.70;99.90;;;5.36;94.72;99371.84;5250324;28;20052;-77
2021/12/02 07:25:40;;;;;;;7.32;2.92;;;5.70;99.90;;;5.42;94.03;99377.22;5249797;28;20058;-76
2021/12/02 07:28:16;;;;;;;10.18;2.78;;;5.70;99.90;;;5.36;94.38;99376.16;5250793;28;20459;-78
2021/12/02 07:30:53;;;;;;;8.55;3.20;;;5.60;99.90;;;5.35;94.26;99380.44;5250457;28;20053;-77
2021/12/02 07:33:31;;;;;;;11.40;2.97;;;5.60;99.90;;;5.38;95.13;99382.22;5250558;28;20048;-76
2021/12/02 07:36:03;;;;;;;5.07;2.70;;;5.60;99.90;;;5.38;95.03;99387.41;5249848;28;20054;-76
2021/12/02 07:38:38;;;;;;;5.38;2.72;;;5.60;99.90;;;5.37;94.76;99394.28;5250537;28;20420;-77
2021/12/02 07:41:10;;;;;;;;;;;5.60;99.90;;;5.39;95.27;99397.78;5251068;28;20452;-77
2021/12/02 07:43:44;;;;;;;7.03;2.47;;;5.70;99.90;;;5.39;94.87;99399.50;5250485;28;19926;-78
2021/12/02 07:46:16;;;;;;;5.97;2.63;;;5.60;99.90;;;5.36;95.17;99408.03;5250247;28;20528;-76
2021/12/02 07:48:48;;;;;;;5.78;2.35;;;5.60;99.90;;;5.40;94.37;99401.25;5250454;28;20044;-77
2021/12/02 07:51:20;;;;;;;7.50;3.00;;;5.60;99.90;;;5.35;94.37;99415.72;5250328;28;20048;-77
2021/12/02 07:53:52;;;;;;;4.78;2.60;;;5.60;99.90;;;5.36;94.64;99412.31;5249968;28;20044;-75
2021/12/02 07:56:24;;;;;;;7.03;2.60;;;5.60;99.90;;;5.35;94.97;99423.50;5250189;28;20053;-77
2021/12/02 07:58:58;;;;;;;7.35;2.00;;;5.60;99.90;;;5.30;93.89;99419.88;5250598;28;20163;-77
2021/12/02 08:01:34;;;;;;;4.35;2.17;;;5.60;99.90;;;5.20;94.39;99425.53;5250047;28;20580;-78
2021/12/02 08:04:06;;;;;;;3.53;2.33;;;5.50;99.90;;;5.18;94.72;99428.06;5249497;28;20325;-77
2021/12/02 08:06:38;;;;;;;3.20;1.73;;;5.50;99.90;;;5.20;95.18;99434.16;5249718;28;20049;-78
2021/12/02 08:09:14;;;;;;;4.38;2.20;;;5.50;99.90;;;5.22;95.53;99432.53;5249957;28;20508;-77
2021/12/02 08:11:46;;;;;;;;;;;5.50;99.90;;;5.21;95.44;99433.31;5250217;28;20048;-78
2021/12/02 08:14:19;;;;;;;3.85;2.22;;;5.50;99.90;;;5.20;95.42;99438.44;5249997;28;20019;-77
2021/12/02 08:16:51;;;;;;;5.22;1.73;;;5.50;99.90;;;5.21;95.94;99435.03;5249654;28;20056;-76
2021/12/02 08:19:23;;;;;;;4.22;2.05;;;5.50;99.90;;;5.21;95.21;99437.63;5249994;28;20049;-76
2021/12/02 08:21:55;;;;;;;3.47;1.02;;;5.50;99.90;;;5.21;93.79;99447.94;5249365;28;20094;-75
2021/12/02 08:24:27;;;;;;;2.45;1.25;;;5.50;99.90;;;5.17;93.54;99453.03;5249671;28;20123;-76
2021/12/02 08:27:00;;;;;;;2.08;1.20;;;5.40;99.90;;;5.12;92.99;99451.97;5250336;28;20565;-79
2021/12/02 08:29:33;;;;;;;5.80;1.60;;;5.40;99.90;;;5.09;93.28;99454.47;5249177;28;20567;-77
2021/12/02 08:32:06;;;;;;;1.55;1.13;;;5.40;99.90;;;5.12;92.99;99462.31;5250208;28;20066;-75
2021/12/02 08:34:38;;;;;;;2.97;1.50;;;5.40;99.90;;;5.47;96.50;99467.81;5247034;28;20128;-74
2021/12/02 08:37:12;;;;;;;3.08;1.58;;;5.60;99.90;;;5.94;98.49;99473.72;5247492;28;20091;-75
2021/12/02 08:39:46;;;;;;;4.35;1.60;;;6.00;99.90;;;6.31;98.10;99483.50;5248119;28;20054;-75
2021/12/02 08:42:19;;;;;;;2.92;1.60;;;6.40;99.90;;;6.71;98.21;99479.50;5247599;28;20052;-74
2021/12/02 08:44:53;;;;;;;3.05;1.65;;;6.80;99.90;;;6.85;94.80;99478.22;5247188;28;20040;-75
2021/12/02 08:47:27;;;;;;;4.32;1.92;;;7.00;99.90;;;7.11;94.42;99486.72;5247572;28;20048;-73
2021/12/02 08:49:59;;;;;;;6.50;2.20;;;7.30;99.90;;;7.28;92.47;99490.66;5247847;28;20094;-76
2021/12/02 08:52:31;;;;;;;6.63;2.53;;;7.60;99.90;;;7.39;92.02;99490.06;5247631;28;20084;-72
2021/12/02 08:55:05;;;;;;;6.00;2.17;;;7.70;99.90;;;7.30;87.75;99485.50;5246773;28;20044;-72
2021/12/02 08:57:37;;;;;;;6.00;2.83;;;7.70;99.90;;;6.96;85.14;99501.81;5248060;28;20052;-73
2021/12/02 09:00:15;;;;;;;6.40;2.65;;;7.40;99.90;;;6.64;85.89;99499.16;5247719;28;20055;-73
2021/12/02 09:02:48;;;;;;;5.65;2.40;;;7.10;99.90;;;6.26;86.32;99510.97;5247613;28;20484;-72
2021/12/02 09:05:20;;;;;;;5.35;2.35;;;6.70;99.90;;;6.11;87.27;99500.13;5246434;28;20055;-73
2021/12/02 09:08:23;;;;;;;4.72;2.22;;;6.50;99.90;;;5.97;88.34;99515.19;5247119;28;20412;-73
2021/12/02 09:11:11;;;;;;;5.40;2.53;;;6.40;99.90;;;5.86;88.62;99519.09;5248398;28;20697;-74
2021/12/02 09:13:43;;;;;;;5.82;2.85;;;6.20;99.90;;;5.71;88.94;99510.00;5247153;28;20056;-72
2021/12/02 09:16:19;;;;;;;6.20;2.97;;;6.10;99.90;;;5.75;89.35;99523.03;5247311;28;20048;-74
2021/12/02 09:18:51;;;;;;;6.43;2.85;;;6.00;99.90;;;5.76;89.41;99522.22;5246831;28;20473;-72
2021/12/02 09:21:24;;;;;;;4.65;2.47;;;6.00;99.90;;;5.91;90.53;99533.09;5246771;28;20476;-70
2021/12/02 09:23:56;;;;;;;5.93;2.90;;;6.00;99.90;;;6.42;95.00;99528.72;5246497;28;20052;-72
2021/12/02 09:26:28;;;;;;;6.85;3.00;;;6.40;99.90;;;6.62;94.76;99533.63;5247143;28;20040;-71
2021/12/02 09:29:00;;;;;;;7.35;3.30;;;6.70;99.90;;;6.49;89.57;99534.97;5246994;28;20052;-71
2021/12/02 09:31:34;;;;;;;7.50;3.15;;;6.70;99.90;;;6.25;88.25;99541.13;5246314;28;20135;-72
2021/12/02 09:34:07;;;;;;;6.03;3.22;;;6.60;99.90;;;6.11;88.30;99547.56;5246059;28;20075;-73
2021/12/02 09:36:40;;;;;;;5.97;2.75;;;6.40;99.90;;;6.03;88.50;99543.84;5246787;28;20135;-71
2021/12/02 09:39:13;;;;;;;7.70;3.28;;;6.30;99.90;;;5.96;89.43;99557.41;5246177;28;20066;-72
2021/12/02 09:41:47;;;;;;;5.68;2.65;;;6.30;99.90;;;5.83;88.09;99555.22;5246480;28;20056;-71
2021/12/02 09:44:19;;;;;;;4.75;2.47;;;6.10;99.90;;;5.84;88.00;99557.84;5245842;28;20135;-71
2021/12/02 09:46:53;;;;;;;4.80;2.88;;;6.00;99.90;;;5.82;88.08;99567.25;5246493;28;20507;-72
2021/12/02 09:49:25;;;;;;;4.45;2.53;;;6.00;99.90;;;5.86;88.61;99566.50;5246523;28;20064;-74
2021/12/02 09:52:02;;;;;;;4.53;2.38;;;6.00;99.90;;;5.95;88.78;99566.00;5247154;28;20497;-74
2021/12/02 09:54:39;;;;;;;5.38;2.45;;;6.00;99.90;;;6.03;88.50;99568.84;5246519;28;20067;-74
2021/12/02 09:57:13;;;;;;;6.35;2.55;;;6.00;99.90;;;6.38;95.08;99565.69;5246780;28;20528;-71
2021/12/02 09:59:50;;;;;;;6.75;2.35;;;6.30;99.90;;;6.70;93.51;99564.09;5246106;28;20056;-72
2021/12/02 10:02:24;;;;;;;6.93;2.50;;;6.70;99.90;;;6.57;89.53;99574.03;5246556;28;20045;-72
2021/12/02 10:04:59;;;;;;;5.53;2.70;;;6.80;99.90;;;6.59;88.49;99573.28;5246491;28;20053;-73
2021/12/02 10:07:35;;;;;;;5.68;2.42;;;6.80;99.90;;;6.84;88.66;99576.59;5247176;28;20052;-70
2021/12/02 10:10:13;;;;;;;3.85;2.05;;;6.90;99.90;;;7.09;87.65;99568.72;5246865;28;20487;-73
2021/12/02 10:13:14;;;;;;;5.43;2.33;;;7.10;99.90;;;7.01;85.95;99576.25;5246728;28;20513;-73
2021/12/02 10:16:15;;;;;;;5.35;2.28;;;7.10;99.90;;;6.75;84.09;99580.66;5246442;28;20135;-73
2021/12/02 10:19:02;;;;;;;4.13;1.95;;;7.00;99.90;;;6.57;84.06;99574.03;5246886;28;20053;-73
2021/12/02 10:21:39;;;;;;;3.60;1.92;;;6.80;99.90;;;6.40;83.88;99568.34;5246670;28;20049;-72
2021/12/02 10:24:13;;;;;;;3.35;2.22;;;6.60;99.90;;;6.25;84.23;99577.34;5246383;28;20493;-73
2021/12/02 10:26:50;;;;;;;3.53;1.98;;;6.50;99.90;;;6.10;84.26;99582.03;5246331;28;20533;-73
2021/12/02 10:29:28;;;;;;;3.40;1.83;;;6.40;99.90;;;6.03;85.12;99574.00;5246539;28;20146;-72
2021/12/02 10:32:13;;;;;;;3.85;2.40;;;6.20;99.90;;;6.11;85.38;99581.19;5246248;28;20410;-73
2021/12/02 10:34:53;;;;;;;3.75;1.83;;;6.20;99.90;;;6.19;85.08;99576.25;5246444;28;20136;-74
2021/12/02 10:37:29;;;;;;;3.08;1.50;;;6.30;99.90;;;6.20;85.66;99573.75;5246302;28;20508;-73
2021/12/02 10:40:06;;;;;;;2.97;1.98;;;6.30;99.90;;;6.16;85.09;99590.00;5246429;28;20045;-76
2021/12/02 10:42:42;;;;;;;3.67;2.15;;;6.30;99.90;;;6.14;85.17;99581.31;5240038;28;20139;-76
2021/12/02 10:45:22;;;;;;;3.10;1.92;;;6.30;99.90;;;6.07;83.90;99589.69;5225595;28;20049;-74
2021/12/02 10:47:55;;;;;;;3.80;2.00;;;6.20;99.90;;;5.96;83.88;99589.31;5249968;28;20051;-75
2021/12/02 10:50:40;;;;;;;5.30;2.13;;;6.10;99.90;;;6.03;84.04;99589.53;5267341;28;20408;-76
2021/12/02 10:53:12;;;;;;;5.47;2.10;;;6.10;99.90;;;7.17;98.17;99575.00;5270717;28;20144;-72
2021/12/02 10:55:57;;;;;;;4.15;1.77;;;6.90;99.90;;;8.35;97.10;99575.56;5270701;28;20044;-72
2021/12/02 10:58:32;;;;;;;3.85;2.15;;;8.00;99.90;;;8.42;85.00;99567.97;5270982;28;20124;-74
2021/12/02 11:01:04;;;;;;;3.40;1.83;;;8.60;99.90;;;8.12;79.41;99578.44;5272765;22;20049;-82
2021/12/02 11:03:36;;;;;;;5.35;2.08;;;8.40;99.90;;;7.72;76.83;99568.75;5274361;28;20055;-87
2021/12/02 11:06:12;;;;;;;2.47;1.90;;;8.10;99.90;;;7.57;78.11;99573.53;5278827;28;20052;-88
2021/12/02 11:08:44;;;;;;;6.45;2.10;;;7.90;99.90;;;7.54;78.25;99576.91;5279971;28;20055;-86